sensor_id;sensor_type;location;lat;lon;timestamp;pressure;altitude;pressure_sealevel;temperature;humidity
39954;BME280;25631;51.516;-0.470;2023-04-01T00:00:07;99601.92;;;9.84;44.08
39954;BME280;25631;51.516;-0.470;2023-04-01T00:02:43;99607.67;;;9.92;43.93
39954;BME280;25631;51.516;-0.470;2023-04-01T00:05:20;99608.34;;;9.79;43.92
39954;BME280;25631;51.516;-0.470;2023-04-01T00:07:56;99616.68;;;10.04;43.76
39954;BME280;25631;51.516;-0.470;2023-04-01T00:10:33;99620.76;;;9.87;43.64
39954;BME280;25631;51.516;-0.470;2023-04-01T00:13:10;99622.13;;;9.79;43.61
39954;BME280;25631;51.516;-0.470;2023-04-01T00:15:48;99625.35;;;9.70;43.48
39954;BME280;25631;51.516;-0.470;2023-04-01T00:18:25;99628.16;;;9.51;43.44
39954;BME280;25631;51.516;-0.470;2023-04-01T00:21:01;99631.56;;;9.50;43.46
39954;BME280;25631;51.516;-0.470;2023-04-01T00:23:38;99638.06;;;9.79;43.33
39954;BME280;25631;51.516;-0.470;2023-04-01T00:26:15;99638.40;;;9.92;43.33
39954;BME280;25631;51.516;-0.470;2023-04-01T00:28:51;99640.60;;;9.98;43.40
39954;BME280;25631;51.516;-0.470;2023-04-01T00:31:28;99642.90;;;9.70;43.32
39954;BME280;25631;51.516;-0.470;2023-04-01T00:34:04;99650.77;;;9.69;43.26
39954;BME280;25631;51.516;-0.470;2023-04-01T00:36:41;99653.24;;;9.64;43.28
39954;BME280;25631;51.516;-0.470;2023-04-01T00:39:18;99659.25;;;9.47;43.32
39954;BME280;25631;51.516;-0.470;2023-04-01T00:41:54;99661.16;;;9.64;43.15
39954;BME280;25631;51.516;-0.470;2023-04-01T00:44:33;99662.96;;;9.53;43.17
39954;BME280;25631;51.516;-0.470;2023-04-01T00:47:10;99667.98;;;9.89;43.08
39954;BME280;25631;51.516;-0.470;2023-04-01T00:49:49;99670.34;;;9.85;43.08
39954;BME280;25631;51.516;-0.470;2023-04-01T00:52:26;99672.02;;;9.50;43.05
39954;BME280;25631;51.516;-0.470;2023-04-01T00:55:05;99674.42;;;9.62;43.05
39954;BME280;25631;51.516;-0.470;2023-04-01T00:57:44;99677.25;;;9.60;43.18
39954;BME280;25631;51.516;-0.470;2023-04-01T01:00:22;99677.74;;;9.64;43.18
39954;BME280;25631;51.516;-0.470;2023-04-01T01:02:59;99678.48;;;9.71;43.14
39954;BME280;25631;51.516;-0.470;2023-04-01T01:05:50;99679.29;;;9.85;43.12
39954;BME280;25631;51.516;-0.470;2023-04-01T01:08:41;99683.59;;;9.42;43.43
39954;BME280;25631;51.516;-0.470;2023-04-01T01:11:28;99685.16;;;9.67;43.38
39954;BME280;25631;51.516;-0.470;2023-04-01T01:14:17;99685.17;;;9.93;43.33
39954;BME280;25631;51.516;-0.470;2023-04-01T01:17:02;99686.46;;;9.47;43.33
39954;BME280;25631;51.516;-0.470;2023-04-01T01:19:56;99688.17;;;9.27;43.48
39954;BME280;25631;51.516;-0.470;2023-04-01T01:22:52;99690.59;;;9.41;43.46
39954;BME280;25631;51.516;-0.470;2023-04-01T01:25:40;99693.46;;;9.76;43.37
39954;BME280;25631;51.516;-0.470;2023-04-01T01:28:29;99694.77;;;9.79;43.33
39954;BME280;25631;51.516;-0.470;2023-04-01T01:31:15;99701.01;;;9.56;43.32
39954;BME280;25631;51.516;-0.470;2023-04-01T01:34:06;99703.01;;;9.67;43.26
39954;BME280;25631;51.516;-0.470;2023-04-01T01:36:52;99705.46;;;9.51;43.36
39954;BME280;25631;51.516;-0.470;2023-04-01T01:39:32;99705.58;;;9.62;43.35
39954;BME280;25631;51.516;-0.470;2023-04-01T01:42:13;99713.69;;;9.39;43.33
39954;BME280;25631;51.516;-0.470;2023-04-01T01:44:52;99717.99;;;9.73;43.33
39954;BME280;25631;51.516;-0.470;2023-04-01T01:47:30;99722.53;;;9.39;43.43
39954;BME280;25631;51.516;-0.470;2023-04-01T01:50:08;99727.38;;;9.55;43.27
39954;BME280;25631;51.516;-0.470;2023-04-01T01:52:45;99730.25;;;9.68;43.21
39954;BME280;25631;51.516;-0.470;2023-04-01T01:55:27;99739.06;;;9.36;43.53
39954;BME280;25631;51.516;-0.470;2023-04-01T01:58:09;99742.76;;;9.56;43.42
39954;BME280;25631;51.516;-0.470;2023-04-01T02:00:51;99746.02;;;9.51;43.37
39954;BME280;25631;51.516;-0.470;2023-04-01T02:03:32;99745.85;;;9.48;43.32
39954;BME280;25631;51.516;-0.470;2023-04-01T02:06:12;99743.24;;;9.75;43.18
39954;BME280;25631;51.516;-0.470;2023-04-01T02:08:52;99748.16;;;9.90;43.12
39954;BME280;25631;51.516;-0.470;2023-04-01T02:11:33;99753.04;;;9.41;43.12
39954;BME280;25631;51.516;-0.470;2023-04-01T02:14:15;99756.08;;;9.49;43.12
39954;BME280;25631;51.516;-0.470;2023-04-01T02:16:56;99758.43;;;9.79;43.15
39954;BME280;25631;51.516;-0.470;2023-04-01T02:19:38;99761.41;;;9.29;43.07
39954;BME280;25631;51.516;-0.470;2023-04-01T02:22:19;99763.75;;;9.42;43.11
39954;BME280;25631;51.516;-0.470;2023-04-01T02:24:59;99764.84;;;9.72;43.13
39954;BME280;25631;51.516;-0.470;2023-04-01T02:27:37;99768.02;;;9.92;43.09
39954;BME280;25631;51.516;-0.470;2023-04-01T02:30:15;99773.75;;;9.60;43.16
39954;BME280;25631;51.516;-0.470;2023-04-01T02:32:53;99776.73;;;9.14;43.00
39954;BME280;25631;51.516;-0.470;2023-04-01T02:35:33;99779.48;;;9.27;43.09
39954;BME280;25631;51.516;-0.470;2023-04-01T02:38:10;99781.50;;;9.45;43.16
39954;BME280;25631;51.516;-0.470;2023-04-01T02:40:48;99783.05;;;9.56;43.23
39954;BME280;25631;51.516;-0.470;2023-04-01T02:43:25;99782.65;;;8.84;43.47
39954;BME280;25631;51.516;-0.470;2023-04-01T02:46:02;99785.73;;;9.22;43.28
39954;BME280;25631;51.516;-0.470;2023-04-01T02:48:39;99787.71;;;9.15;43.14
39954;BME280;25631;51.516;-0.470;2023-04-01T02:51:15;99790.68;;;9.42;43.00
39954;BME280;25631;51.516;-0.470;2023-04-01T02:53:52;99791.10;;;9.56;42.95
39954;BME280;25631;51.516;-0.470;2023-04-01T02:56:29;99793.57;;;9.61;42.85
39954;BME280;25631;51.516;-0.470;2023-04-01T02:59:05;99793.47;;;9.41;42.76
39954;BME280;25631;51.516;-0.470;2023-04-01T03:01:42;99797.35;;;9.46;42.76
39954;BME280;25631;51.516;-0.470;2023-04-01T03:04:19;99802.84;;;9.80;42.74
39954;BME280;25631;51.516;-0.470;2023-04-01T03:06:55;99801.95;;;9.48;42.69
39954;BME280;25631;51.516;-0.470;2023-04-01T03:09:32;99808.56;;;9.45;42.76
39954;BME280;25631;51.516;-0.470;2023-04-01T03:12:08;99810.79;;;9.51;42.65
39954;BME280;25631;51.516;-0.470;2023-04-01T03:14:45;99811.08;;;9.70;42.60
39954;BME280;25631;51.516;-0.470;2023-04-01T03:17:21;99814.58;;;9.56;42.64
39954;BME280;25631;51.516;-0.470;2023-04-01T03:19:58;99814.83;;;9.79;42.62
39954;BME280;25631;51.516;-0.470;2023-04-01T03:22:34;99818.83;;;9.75;42.53
39954;BME280;25631;51.516;-0.470;2023-04-01T03:25:11;99818.25;;;9.94;42.45
39954;BME280;25631;51.516;-0.470;2023-04-01T03:27:48;99821.20;;;9.43;42.45
39954;BME280;25631;51.516;-0.470;2023-04-01T03:30:25;99825.02;;;9.53;42.41
39954;BME280;25631;51.516;-0.470;2023-04-01T03:33:03;99826.46;;;9.27;42.44
39954;BME280;25631;51.516;-0.470;2023-04-01T03:35:39;99829.02;;;9.47;42.38
39954;BME280;25631;51.516;-0.470;2023-04-01T03:38:15;99829.65;;;9.66;42.39
39954;BME280;25631;51.516;-0.470;2023-04-01T03:40:52;99832.93;;;9.52;42.43
39954;BME280;25631;51.516;-0.470;2023-04-01T03:43:28;99834.69;;;9.94;42.37
39954;BME280;25631;51.516;-0.470;2023-04-01T03:46:05;99837.30;;;9.77;42.32
39954;BME280;25631;51.516;-0.470;2023-04-01T03:48:42;99841.41;;;9.60;42.30
39954;BME280;25631;51.516;-0.470;2023-04-01T03:51:18;99843.86;;;9.71;42.31
39954;BME280;25631;51.516;-0.470;2023-04-01T03:53:54;99847.08;;;9.65;42.32
39954;BME280;25631;51.516;-0.470;2023-04-01T03:56:31;99847.01;;;9.76;42.25
39954;BME280;25631;51.516;-0.470;2023-04-01T03:59:09;99849.98;;;10.01;42.24
39954;BME280;25631;51.516;-0.470;2023-04-01T04:01:46;99852.57;;;9.79;42.21
39954;BME280;25631;51.516;-0.470;2023-04-01T04:04:23;99854.59;;;9.76;41.88
39954;BME280;25631;51.516;-0.470;2023-04-01T04:07:00;99860.68;;;9.80;41.93
39954;BME280;25631;51.516;-0.470;2023-04-01T04:09:36;99863.66;;;9.49;41.92
39954;BME280;25631;51.516;-0.470;2023-04-01T04:12:12;99869.60;;;9.70;41.84
39954;BME280;25631;51.516;-0.470;2023-04-01T04:14:49;99875.26;;;9.42;41.90
39954;BME280;25631;51.516;-0.470;2023-04-01T04:17:25;99878.99;;;9.55;41.95
39954;BME280;25631;51.516;-0.470;2023-04-01T04:20:03;99884.43;;;9.57;41.86
39954;BME280;25631;51.516;-0.470;2023-04-01T04:22:40;99887.30;;;9.34;41.81
39954;BME280;25631;51.516;-0.470;2023-04-01T04:25:16;99891.60;;;9.38;41.79
39954;BME280;25631;51.516;-0.470;2023-04-01T04:27:53;99894.67;;;9.60;41.74
39954;BME280;25631;51.516;-0.470;2023-04-01T04:30:30;99898.64;;;9.28;41.83
39954;BME280;25631;51.516;-0.470;2023-04-01T04:33:07;99900.15;;;9.36;41.92
39954;BME280;25631;51.516;-0.470;2023-04-01T04:35:44;99903.59;;;9.38;41.88
39954;BME280;25631;51.516;-0.470;2023-04-01T04:38:20;99906.20;;;9.33;42.01
39954;BME280;25631;51.516;-0.470;2023-04-01T04:40:57;99909.62;;;9.60;42.03
39954;BME280;25631;51.516;-0.470;2023-04-01T04:43:34;99909.19;;;9.45;41.95
39954;BME280;25631;51.516;-0.470;2023-04-01T04:46:10;99913.70;;;9.55;41.90
39954;BME280;25631;51.516;-0.470;2023-04-01T04:48:47;99914.47;;;9.35;41.71
39954;BME280;25631;51.516;-0.470;2023-04-01T04:51:24;99918.43;;;9.03;41.62
39954;BME280;25631;51.516;-0.470;2023-04-01T04:54:00;99920.01;;;9.27;41.51
39954;BME280;25631;51.516;-0.470;2023-04-01T04:56:37;99919.74;;;9.24;41.57
39954;BME280;25631;51.516;-0.470;2023-04-01T04:59:13;99926.69;;;9.40;41.55
39954;BME280;25631;51.516;-0.470;2023-04-01T05:01:49;99929.77;;;9.24;41.50
39954;BME280;25631;51.516;-0.470;2023-04-01T05:04:26;99933.38;;;9.30;41.37
39954;BME280;25631;51.516;-0.470;2023-04-01T05:07:03;99935.38;;;9.00;41.11
39954;BME280;25631;51.516;-0.470;2023-04-01T05:09:40;99939.48;;;8.96;40.97
39954;BME280;25631;51.516;-0.470;2023-04-01T05:12:17;99939.79;;;9.17;41.08
39954;BME280;25631;51.516;-0.470;2023-04-01T05:14:53;99942.86;;;9.35;41.08
39954;BME280;25631;51.516;-0.470;2023-04-01T05:17:30;99944.94;;;8.91;41.21
39954;BME280;25631;51.516;-0.470;2023-04-01T05:20:07;99948.10;;;9.06;41.18
39954;BME280;25631;51.516;-0.470;2023-04-01T05:22:44;99947.42;;;8.89;41.19
39954;BME280;25631;51.516;-0.470;2023-04-01T05:25:20;99948.68;;;8.49;41.30
39954;BME280;25631;51.516;-0.470;2023-04-01T05:27:57;99954.39;;;8.98;41.17
39954;BME280;25631;51.516;-0.470;2023-04-01T05:30:33;99956.29;;;9.09;41.16
39954;BME280;25631;51.516;-0.470;2023-04-01T05:33:11;99959.86;;;8.83;41.18
39954;BME280;25631;51.516;-0.470;2023-04-01T05:35:48;99963.22;;;9.01;41.12
39954;BME280;25631;51.516;-0.470;2023-04-01T05:38:25;99964.69;;;8.87;41.15
39954;BME280;25631;51.516;-0.470;2023-04-01T05:41:02;99966.91;;;8.72;41.25
39954;BME280;25631;51.516;-0.470;2023-04-01T05:43:40;99971.34;;;8.73;41.27
39954;BME280;25631;51.516;-0.470;2023-04-01T05:46:17;99976.76;;;8.92;41.28
39954;BME280;25631;51.516;-0.470;2023-04-01T05:48:53;99979.78;;;9.11;41.32
39954;BME280;25631;51.516;-0.470;2023-04-01T05:51:30;99985.86;;;9.24;41.33
39954;BME280;25631;51.516;-0.470;2023-04-01T05:54:07;99990.39;;;9.23;41.35
39954;BME280;25631;51.516;-0.470;2023-04-01T05:56:44;99992.30;;;9.07;41.20
39954;BME280;25631;51.516;-0.470;2023-04-01T05:59:20;99996.84;;;8.85;41.05
39954;BME280;25631;51.516;-0.470;2023-04-01T06:01:57;100000.93;;;9.22;41.12
39954;BME280;25631;51.516;-0.470;2023-04-01T06:04:38;100001.80;;;8.90;41.21
39954;BME280;25631;51.516;-0.470;2023-04-01T06:07:17;100003.74;;;8.99;41.28
39954;BME280;25631;51.516;-0.470;2023-04-01T06:09:58;100006.96;;;8.87;41.27
39954;BME280;25631;51.516;-0.470;2023-04-01T06:12:44;100006.14;;;8.87;41.29
39954;BME280;25631;51.516;-0.470;2023-04-01T06:15:29;100008.08;;;8.97;41.28
39954;BME280;25631;51.516;-0.470;2023-04-01T06:18:23;100011.26;;;8.85;41.21
39954;BME280;25631;51.516;-0.470;2023-04-01T06:21:14;100017.43;;;8.71;41.19
39954;BME280;25631;51.516;-0.470;2023-04-01T06:24:05;100017.31;;;8.93;41.20
39954;BME280;25631;51.516;-0.470;2023-04-01T06:26:48;100021.23;;;9.09;41.32
39954;BME280;25631;51.516;-0.470;2023-04-01T06:29:42;100023.90;;;8.78;41.30
39954;BME280;25631;51.516;-0.470;2023-04-01T06:32:37;100022.79;;;8.77;41.14
39954;BME280;25631;51.516;-0.470;2023-04-01T06:35:27;100025.27;;;8.74;41.03
39954;BME280;25631;51.516;-0.470;2023-04-01T06:38:17;100032.15;;;8.85;41.05
39954;BME280;25631;51.516;-0.470;2023-04-01T06:41:19;100031.99;;;8.77;41.25
39954;BME280;25631;51.516;-0.470;2023-04-01T06:44:08;100037.74;;;8.83;41.21
39954;BME280;25631;51.516;-0.470;2023-04-01T06:46:55;100038.13;;;8.45;41.26
39954;BME280;25631;51.516;-0.470;2023-04-01T06:49:44;100041.11;;;8.48;41.32
39954;BME280;25631;51.516;-0.470;2023-04-01T06:52:29;100044.19;;;8.66;41.30
39954;BME280;25631;51.516;-0.470;2023-04-01T06:55:23;100052.69;;;8.48;41.23
39954;BME280;25631;51.516;-0.470;2023-04-01T06:58:04;100053.73;;;8.66;41.24
39954;BME280;25631;51.516;-0.470;2023-04-01T07:00:44;100058.14;;;8.25;41.39
39954;BME280;25631;51.516;-0.470;2023-04-01T07:03:29;100058.06;;;8.51;41.44
39954;BME280;25631;51.516;-0.470;2023-04-01T07:06:12;100061.92;;;8.60;41.41
39954;BME280;25631;51.516;-0.470;2023-04-01T07:08:51;100067.56;;;8.71;41.42
39954;BME280;25631;51.516;-0.470;2023-04-01T07:11:32;100073.03;;;8.70;41.41
39954;BME280;25631;51.516;-0.470;2023-04-01T07:14:16;100078.60;;;8.73;41.26
39954;BME280;25631;51.516;-0.470;2023-04-01T07:17:00;100078.01;;;8.67;41.29
39954;BME280;25631;51.516;-0.470;2023-04-01T07:19:45;100083.92;;;8.51;41.21
39954;BME280;25631;51.516;-0.470;2023-04-01T07:22:27;100084.40;;;8.66;41.10
39954;BME280;25631;51.516;-0.470;2023-04-01T07:25:13;100085.97;;;8.37;41.14
39954;BME280;25631;51.516;-0.470;2023-04-01T07:27:50;100093.21;;;8.47;41.24
39954;BME280;25631;51.516;-0.470;2023-04-01T07:30:33;100097.78;;;8.39;41.30
39954;BME280;25631;51.516;-0.470;2023-04-01T07:33:21;100100.92;;;8.65;41.43
39954;BME280;25631;51.516;-0.470;2023-04-01T07:36:03;100106.43;;;8.55;41.44
39954;BME280;25631;51.516;-0.470;2023-04-01T07:38:52;100108.83;;;8.66;41.28
39954;BME280;25631;51.516;-0.470;2023-04-01T07:41:45;100113.22;;;8.79;41.01
39954;BME280;25631;51.516;-0.470;2023-04-01T07:44:29;100111.74;;;8.74;41.01
39954;BME280;25631;51.516;-0.470;2023-04-01T07:47:21;100116.37;;;8.71;41.06
39954;BME280;25631;51.516;-0.470;2023-04-01T07:50:10;100118.67;;;8.73;40.87
39954;BME280;25631;51.516;-0.470;2023-04-01T07:52:52;100120.40;;;8.48;40.83
39954;BME280;25631;51.516;-0.470;2023-04-01T07:55:37;100125.97;;;8.76;40.85
39954;BME280;25631;51.516;-0.470;2023-04-01T07:58:21;100132.01;;;8.57;40.69
39954;BME280;25631;51.516;-0.470;2023-04-01T08:01:09;100135.22;;;8.86;40.30
39954;BME280;25631;51.516;-0.470;2023-04-01T08:04:13;100140.56;;;8.40;40.38
39954;BME280;25631;51.516;-0.470;2023-04-01T08:06:59;100149.07;;;8.33;40.31
39954;BME280;25631;51.516;-0.470;2023-04-01T08:09:44;100154.55;;;8.59;40.38
39954;BME280;25631;51.516;-0.470;2023-04-01T08:12:35;100158.26;;;8.57;40.55
39954;BME280;25631;51.516;-0.470;2023-04-01T08:15:22;100159.08;;;8.57;40.56
39954;BME280;25631;51.516;-0.470;2023-04-01T08:18:06;100160.78;;;8.55;40.61
39954;BME280;25631;51.516;-0.470;2023-04-01T08:20:48;100161.73;;;8.73;40.67
39954;BME280;25631;51.516;-0.470;2023-04-01T08:23:28;100167.54;;;8.74;40.60
39954;BME280;25631;51.516;-0.470;2023-04-01T08:26:12;100170.68;;;8.75;40.66
39954;BME280;25631;51.516;-0.470;2023-04-01T08:28:54;100175.91;;;8.73;40.73
39954;BME280;25631;51.516;-0.470;2023-04-01T08:31:37;100179.48;;;8.89;40.64
39954;BME280;25631;51.516;-0.470;2023-04-01T08:34:19;100184.95;;;8.75;40.66
39954;BME280;25631;51.516;-0.470;2023-04-01T08:37:01;100187.51;;;8.64;40.75
39954;BME280;25631;51.516;-0.470;2023-04-01T08:39:41;100194.25;;;8.99;40.50
39954;BME280;25631;51.516;-0.470;2023-04-01T08:43:07;100197.14;;;8.79;40.40
39954;BME280;25631;51.516;-0.470;2023-04-01T08:45:56;100202.38;;;8.77;40.71
39954;BME280;25631;51.516;-0.470;2023-04-01T08:48:52;100206.92;;;8.81;40.59
39954;BME280;25631;51.516;-0.470;2023-04-01T08:52:03;100214.09;;;8.94;40.49
39954;BME280;25631;51.516;-0.470;2023-04-01T08:54:56;100218.82;;;8.80;40.38
39954;BME280;25631;51.516;-0.470;2023-04-01T08:57:49;100222.84;;;8.77;40.35
39954;BME280;25631;51.516;-0.470;2023-04-01T09:00:32;100226.31;;;8.74;40.24
39954;BME280;25631;51.516;-0.470;2023-04-01T09:03:37;100228.63;;;8.59;40.40
39954;BME280;25631;51.516;-0.470;2023-04-01T09:06:27;100228.95;;;8.66;40.47
39954;BME280;25631;51.516;-0.470;2023-04-01T09:09:32;100236.47;;;8.73;40.58
39954;BME280;25631;51.516;-0.470;2023-04-01T09:12:56;100241.66;;;8.93;40.53
39954;BME280;25631;51.516;-0.470;2023-04-01T09:15:48;100246.12;;;8.94;40.59
39954;BME280;25631;51.516;-0.470;2023-04-01T09:18:42;100251.70;;;8.82;40.25
39954;BME280;25631;51.516;-0.470;2023-04-01T09:21:32;100255.36;;;9.08;40.24
39954;BME280;25631;51.516;-0.470;2023-04-01T09:24:26;100256.12;;;9.24;40.19
39954;BME280;25631;51.516;-0.470;2023-04-01T09:27:06;100257.36;;;9.29;40.28
39954;BME280;25631;51.516;-0.470;2023-04-01T09:30:33;100261.46;;;9.20;40.25
39954;BME280;25631;51.516;-0.470;2023-04-01T09:34:30;100264.53;;;9.11;40.07
39954;BME280;25631;51.516;-0.470;2023-04-01T09:37:19;100269.37;;;9.11;39.77
39954;BME280;25631;51.516;-0.470;2023-04-01T09:40:11;100269.82;;;9.15;39.92
39954;BME280;25631;51.516;-0.470;2023-04-01T09:43:06;100268.93;;;8.71;39.86
39954;BME280;25631;51.516;-0.470;2023-04-01T09:46:05;100275.37;;;8.40;40.11
39954;BME280;25631;51.516;-0.470;2023-04-01T09:48:57;100281.66;;;8.36;40.40
39954;BME280;25631;51.516;-0.470;2023-04-01T09:51:42;100281.18;;;8.73;40.36
39954;BME280;25631;51.516;-0.470;2023-04-01T09:54:37;100284.55;;;8.71;40.58
39954;BME280;25631;51.516;-0.470;2023-04-01T10:02:40;100295.40;;;8.66;40.54
39954;BME280;25631;51.516;-0.470;2023-04-01T10:05:32;100296.44;;;8.64;40.20
39954;BME280;25631;51.516;-0.470;2023-04-01T10:08:29;100299.71;;;9.16;40.11
39954;BME280;25631;51.516;-0.470;2023-04-01T10:11:29;100300.98;;;9.33;40.04
39954;BME280;25631;51.516;-0.470;2023-04-01T10:14:26;100310.63;;;9.28;40.10
39954;BME280;25631;51.516;-0.470;2023-04-01T10:19:45;100318.91;;;9.48;40.00
39954;BME280;25631;51.516;-0.470;2023-04-01T10:22:42;100326.91;;;9.38;39.98
39954;BME280;25631;51.516;-0.470;2023-04-01T10:28:00;100326.63;;;9.58;39.92
39954;BME280;25631;51.516;-0.470;2023-04-01T10:31:08;100334.01;;;9.31;39.98
39954;BME280;25631;51.516;-0.470;2023-04-01T10:34:12;100339.28;;;9.62;39.69
39954;BME280;25631;51.516;-0.470;2023-04-01T10:36:54;100348.55;;;9.02;39.35
39954;BME280;25631;51.516;-0.470;2023-04-01T10:42:11;100349.12;;;9.34;39.45
39954;BME280;25631;51.516;-0.470;2023-04-01T10:45:13;100353.72;;;9.50;39.63
39954;BME280;25631;51.516;-0.470;2023-04-01T10:48:21;100356.24;;;9.16;39.87
39954;BME280;25631;51.516;-0.470;2023-04-01T10:51:21;100365.14;;;9.27;39.89
39954;BME280;25631;51.516;-0.470;2023-04-01T10:54:16;100368.85;;;9.64;39.69
39954;BME280;25631;51.516;-0.470;2023-04-01T10:56:59;100373.20;;;9.75;39.43
39954;BME280;25631;51.516;-0.470;2023-04-01T11:00:19;100374.44;;;9.59;39.13
39954;BME280;25631;51.516;-0.470;2023-04-01T11:03:29;100376.10;;;9.88;38.98
39954;BME280;25631;51.516;-0.470;2023-04-01T11:07:09;100376.35;;;8.54;39.13
39954;BME280;25631;51.516;-0.470;2023-04-01T11:13:49;100371.64;;;9.50;38.98
39954;BME280;25631;51.516;-0.470;2023-04-01T11:19:14;100379.35;;;9.21;38.85
39954;BME280;25631;51.516;-0.470;2023-04-01T11:22:14;100386.88;;;9.76;38.88
39954;BME280;25631;51.516;-0.470;2023-04-01T11:25:24;100394.85;;;9.91;38.79
39954;BME280;25631;51.516;-0.470;2023-04-01T11:28:20;100398.52;;;9.68;39.03
39954;BME280;25631;51.516;-0.470;2023-04-01T11:31:10;100398.74;;;9.65;37.85
39954;BME280;25631;51.516;-0.470;2023-04-01T11:33:57;100401.18;;;9.83;37.72
39954;BME280;25631;51.516;-0.470;2023-04-01T11:36:48;100401.01;;;9.96;37.72
39954;BME280;25631;51.516;-0.470;2023-04-01T11:39:35;100398.87;;;10.65;37.84
39954;BME280;25631;51.516;-0.470;2023-04-01T11:42:20;100402.28;;;10.34;37.21
39954;BME280;25631;51.516;-0.470;2023-04-01T11:45:13;100409.22;;;10.69;37.15
39954;BME280;25631;51.516;-0.470;2023-04-01T11:48:03;100413.22;;;10.81;37.42
39954;BME280;25631;51.516;-0.470;2023-04-01T11:50:58;100413.25;;;10.61;37.23
39954;BME280;25631;51.516;-0.470;2023-04-01T11:53:47;100420.93;;;11.20;37.18
39954;BME280;25631;51.516;-0.470;2023-04-01T11:56:39;100427.11;;;10.46;37.13
39954;BME280;25631;51.516;-0.470;2023-04-01T11:59:38;100431.03;;;11.03;36.41
39954;BME280;25631;51.516;-0.470;2023-04-01T12:02:25;100435.65;;;11.50;36.25
39954;BME280;25631;51.516;-0.470;2023-04-01T12:05:34;100438.51;;;11.00;36.01
39954;BME280;25631;51.516;-0.470;2023-04-01T12:08:22;100432.02;;;11.50;36.17
39954;BME280;25631;51.516;-0.470;2023-04-01T12:11:12;100440.21;;;11.38;36.45
39954;BME280;25631;51.516;-0.470;2023-04-01T12:13:55;100442.64;;;11.30;36.21
39954;BME280;25631;51.516;-0.470;2023-04-01T12:16:44;100444.89;;;11.31;36.28
39954;BME280;25631;51.516;-0.470;2023-04-01T12:19:28;100453.44;;;11.54;36.34
39954;BME280;25631;51.516;-0.470;2023-04-01T12:22:25;100456.83;;;11.87;35.98
39954;BME280;25631;51.516;-0.470;2023-04-01T12:25:18;100460.08;;;11.97;35.60
39954;BME280;25631;51.516;-0.470;2023-04-01T12:28:08;100466.88;;;11.46;35.20
39954;BME280;25631;51.516;-0.470;2023-04-01T12:30:55;100465.04;;;11.73;35.20
39954;BME280;25631;51.516;-0.470;2023-04-01T12:33:48;100472.06;;;11.69;35.24
39954;BME280;25631;51.516;-0.470;2023-04-01T12:36:37;100473.57;;;11.55;35.45
39954;BME280;25631;51.516;-0.470;2023-04-01T12:39:34;100474.66;;;11.69;35.50
39954;BME280;25631;51.516;-0.470;2023-04-01T12:42:27;100477.65;;;11.49;35.23
39954;BME280;25631;51.516;-0.470;2023-04-01T12:45:25;100491.19;;;11.42;35.35
39954;BME280;25631;51.516;-0.470;2023-04-01T12:48:23;100493.33;;;11.27;35.61
39954;BME280;25631;51.516;-0.470;2023-04-01T12:51:29;100500.08;;;11.21;35.74
39954;BME280;25631;51.516;-0.470;2023-04-01T12:54:45;100500.62;;;11.28;35.59
39954;BME280;25631;51.516;-0.470;2023-04-01T12:57:39;100504.24;;;11.68;35.30
39954;BME280;25631;51.516;-0.470;2023-04-01T13:00:32;100512.41;;;11.38;34.70
39954;BME280;25631;51.516;-0.470;2023-04-01T13:04:32;100516.28;;;11.34;34.88
39954;BME280;25631;51.516;-0.470;2023-04-01T13:07:23;100524.19;;;11.29;35.01
39954;BME280;25631;51.516;-0.470;2023-04-01T13:10:13;100529.72;;;11.60;35.10
39954;BME280;25631;51.516;-0.470;2023-04-01T13:13:00;100532.95;;;11.34;35.38
39954;BME280;25631;51.516;-0.470;2023-04-01T13:15:44;100538.77;;;11.56;35.39
39954;BME280;25631;51.516;-0.470;2023-04-01T13:18:32;100537.76;;;11.33;35.23
39954;BME280;25631;51.516;-0.470;2023-04-01T13:21:16;100543.88;;;11.27;35.29
39954;BME280;25631;51.516;-0.470;2023-04-01T13:24:02;100552.81;;;11.16;35.22
39954;BME280;25631;51.516;-0.470;2023-04-01T13:26:53;100556.47;;;11.29;35.42
39954;BME280;25631;51.516;-0.470;2023-04-01T13:29:36;100563.85;;;11.09;35.42
39954;BME280;25631;51.516;-0.470;2023-04-01T13:32:21;100570.31;;;10.87;35.49
39954;BME280;25631;51.516;-0.470;2023-04-01T13:35:10;100569.40;;;10.39;35.21
39954;BME280;25631;51.516;-0.470;2023-04-01T13:38:02;100580.47;;;10.62;35.24
39954;BME280;25631;51.516;-0.470;2023-04-01T13:40:49;100583.36;;;10.58;35.57
39954;BME280;25631;51.516;-0.470;2023-04-01T13:43:32;100586.29;;;10.55;35.51
39954;BME280;25631;51.516;-0.470;2023-04-01T13:46:28;100588.58;;;10.72;35.86
39954;BME280;25631;51.516;-0.470;2023-04-01T13:50:25;100590.62;;;10.60;36.11
39954;BME280;25631;51.516;-0.470;2023-04-01T13:53:25;100594.17;;;10.35;36.22
39954;BME280;25631;51.516;-0.470;2023-04-01T13:56:16;100597.65;;;10.43;36.37
39954;BME280;25631;51.516;-0.470;2023-04-01T13:59:10;100603.06;;;10.14;36.37
39954;BME280;25631;51.516;-0.470;2023-04-01T14:02:02;100604.99;;;10.08;36.10
39954;BME280;25631;51.516;-0.470;2023-04-01T14:04:50;100603.44;;;10.21;36.27
39954;BME280;25631;51.516;-0.470;2023-04-01T14:07:45;100607.17;;;10.41;36.38
39954;BME280;25631;51.516;-0.470;2023-04-01T14:10:34;100614.36;;;10.54;36.38
39954;BME280;25631;51.516;-0.470;2023-04-01T14:13:23;100620.84;;;10.87;36.04
39954;BME280;25631;51.516;-0.470;2023-04-01T14:16:21;100624.87;;;10.79;35.89
39954;BME280;25631;51.516;-0.470;2023-04-01T14:19:11;100625.37;;;10.64;35.90
39954;BME280;25631;51.516;-0.470;2023-04-01T14:22:01;100631.27;;;10.82;35.96
39954;BME280;25631;51.516;-0.470;2023-04-01T14:24:55;100632.50;;;10.87;35.87
39954;BME280;25631;51.516;-0.470;2023-04-01T14:27:43;100639.34;;;10.31;36.12
39954;BME280;25631;51.516;-0.470;2023-04-01T14:30:35;100640.88;;;10.33;36.28
39954;BME280;25631;51.516;-0.470;2023-04-01T14:33:26;100652.00;;;10.25;36.35
39954;BME280;25631;51.516;-0.470;2023-04-01T14:36:24;100658.42;;;10.32;36.29
39954;BME280;25631;51.516;-0.470;2023-04-01T14:39:15;100661.70;;;10.25;36.26
39954;BME280;25631;51.516;-0.470;2023-04-01T14:42:08;100668.13;;;10.08;36.37
39954;BME280;25631;51.516;-0.470;2023-04-01T14:45:30;100670.84;;;10.16;36.29
39954;BME280;25631;51.516;-0.470;2023-04-01T14:48:23;100679.57;;;10.00;36.03
39954;BME280;25631;51.516;-0.470;2023-04-01T14:51:10;100683.23;;;9.94;36.35